METAR AND TAF INFORMATION
METAR FOR LFST
ADDS - METARS form results

(0948 UTC 19 August 2019)
Data provider http://aviationweather.gov/metar/data/
 
METAR text: LFST 190930Z AUTO 35003KT 310V060 9999 FEW037 24/14 Q1017 NOSIG
Conditions at: LFST (STRASBOURG/ENTZH, FR) observed 0930 UTC 19 August 2019
Temperature: 24.0°C (75°F)
Dewpoint: 14.0°C (57°F) [RH = 54%]
Pressure (altimeter): 30.03 inches Hg (1017.0 mb)
Winds: from the N (350 degrees) at 3 MPH (3 knots; 1.5 m/s)
Visibility: 6 or more miles (10+ km)
Ceiling: at least 12,000 feet AGL
Clouds: few clouds at 3700 feet AGL
Weather: no significant weather observed at this time

METAR text: LFST 190900Z AUTO VRB01KT 9999 FEW033 BKN046 BKN060 23/14 Q1017 NOSIG
Conditions at: LFST (STRASBOURG/ENTZH, FR) observed 0900 UTC 19 August 2019
Temperature: 23.0°C (73°F)
Dewpoint: 14.0°C (57°F) [RH = 57%]
Pressure (altimeter): 30.03 inches Hg (1017.0 mb)
Winds: variable direction winds at 1 MPH (1 knots; 0.5 m/s)
Visibility: 6 or more miles (10+ km)
Ceiling: 4600 feet AGL
Clouds: few clouds at 3300 feet AGL
broken clouds at 4600 feet AGL
broken clouds at 6000 feet AGL
Weather: no significant weather observed at this time

Forecast for: LFST (STRASBOURG/ENTZH, FR)
Text: TAF LFST 190500Z 1906/2006 VRB03KT 9999 BKN045
Forecast period: 0600 UTC 19 August 2019 to 0600 UTC 20 August 2019
Forecast type: FROM: standard forecast or significant change
Winds: variable direction winds at 3 MPH (3 knots; 1.5 m/s)
Visibility: 6 or more miles 10+ km)
Ceiling: 4500 feet AGL
Clouds: broken clouds at 4500 feet AGL
Weather: no significant weather forecast for this period
Text: PROB40
Forecast period: 1200 to 1800 UTC 19 August 2019
Forecast type: TEMPORARY: The following changes expected for less than half the time period
Winds: from the W (280 degrees) at 12 MPH (10 knots; 5.1 m/s)
Visibility: missing
Ceiling: at least 12,000 feet AGL
Clouds: few clouds at 3500 feet AGL
Weather: -SHRA  (light rain showers)

 AIRPORT MAP

 RUNWAY INFORMATION
Runway 05 Runway length 7874 ft Runway width 148 ft
Runway elevation 503 ft Runway displaced threshold 0 ft Runway heading 49
Runway 23 Runway length 7874 ft Runway width 148 ft
Runway elevation 491 ft Runway displaced threshold 0 ft Runway heading 229

 AIRPORT FREQUENCIES
Type APP Name STRASBOURG Frequency 119.45 MHZ
Type ATIS Name STRASBOURG Frequency 126.925 MHZ
Type GND Name STRASBOURG Frequency 121.8 MHZ
Type TWR Name STRASBOURG Frequency 126.875 MHZ

 AIRPORT NEAR NAVIGATION AIDS
Type VOR-DME Name Saverne Frequency 110450 KHZ
Type VOR-DME Name Strasbourg Frequency 115600 KHZ



Powered by Virtual Airlines Manager [v2.6.2]